sensor_id;sensor_type;location;lat;lon;timestamp;pressure;altitude;pressure_sealevel;temperature;humidity
6528;BME280;3297;42.664;23.256;2022-08-21T00:01:26;50457.50;;;-139.84;90.89
6528;BME280;3297;42.664;23.256;2022-08-21T00:03:53;50447.78;;;-139.84;90.97
6528;BME280;3297;42.664;23.256;2022-08-21T00:06:20;50461.38;;;-139.84;90.75
6528;BME280;3297;42.664;23.256;2022-08-21T00:08:45;50459.44;;;-139.84;90.93
6528;BME280;3297;42.664;23.256;2022-08-21T00:11:12;50459.44;;;-139.84;90.29
6528;BME280;3297;42.664;23.256;2022-08-21T00:13:38;50471.09;;;-139.84;90.44
6528;BME280;3297;42.664;23.256;2022-08-21T00:16:04;50443.91;;;-139.84;90.17
6528;BME280;3297;42.664;23.256;2022-08-21T00:18:30;50418.63;;;-139.84;90.26
6528;BME280;3297;42.664;23.256;2022-08-21T00:20:56;50471.09;;;-139.84;90.50
6528;BME280;3297;42.664;23.256;2022-08-21T00:23:21;50432.22;;;-139.84;90.81
6528;BME280;3297;42.664;23.256;2022-08-21T00:25:48;50482.78;;;-139.84;90.64
6528;BME280;3297;42.664;23.256;2022-08-21T00:28:14;50473.03;;;-139.84;90.62
6528;BME280;3297;42.664;23.256;2022-08-21T00:30:41;50447.78;;;-139.84;90.76
6528;BME280;3297;42.664;23.256;2022-08-21T00:33:07;50490.53;;;-139.84;90.82
6528;BME280;3297;42.664;23.256;2022-08-21T00:35:36;50492.47;;;-139.84;90.69
6528;BME280;3297;42.664;23.256;2022-08-21T00:38:03;50459.44;;;-139.84;90.93
6528;BME280;3297;42.664;23.256;2022-08-21T00:43:04;50471.09;;;-139.84;91.21
6528;BME280;3297;42.664;23.256;2022-08-21T00:45:31;50463.34;;;-139.84;91.29
6528;BME280;3297;42.664;23.256;2022-08-21T00:47:57;50476.94;;;-139.84;90.93
6528;BME280;3297;42.664;23.256;2022-08-21T00:50:27;50494.44;;;-139.84;90.95
6528;BME280;3297;42.664;23.256;2022-08-21T00:52:54;50434.19;;;-139.84;91.15
6528;BME280;3297;42.664;23.256;2022-08-21T00:55:21;50455.56;;;-139.84;91.43
6528;BME280;3297;42.664;23.256;2022-08-21T00:57:51;50484.72;;;-139.84;91.60
6528;BME280;3297;42.664;23.256;2022-08-21T01:00:23;50478.88;;;-139.84;91.49
6528;BME280;3297;42.664;23.256;2022-08-21T01:02:49;50490.53;;;-139.84;91.82
6528;BME280;3297;42.664;23.256;2022-08-21T01:05:15;50451.66;;;-139.84;91.76
6528;BME280;3297;42.664;23.256;2022-08-21T01:07:41;50494.44;;;-139.84;91.22
6528;BME280;3297;42.664;23.256;2022-08-21T01:10:07;50490.53;;;-139.84;91.51
6528;BME280;3297;42.664;23.256;2022-08-21T01:12:34;50515.81;;;-139.84;91.58
6528;BME280;3297;42.664;23.256;2022-08-21T01:15:04;50498.31;;;-139.84;89.72
6528;BME280;3297;42.664;23.256;2022-08-21T01:17:30;50529.41;;;-139.84;88.70
6528;BME280;3297;42.664;23.256;2022-08-21T01:19:58;50471.09;;;-139.84;89.22
6528;BME280;3297;42.664;23.256;2022-08-21T01:22:24;50469.16;;;-139.84;89.41
6528;BME280;3297;42.664;23.256;2022-08-21T01:24:50;50469.16;;;-139.84;89.33
6528;BME280;3297;42.664;23.256;2022-08-21T01:27:16;50490.53;;;-139.84;89.68
6528;BME280;3297;42.664;23.256;2022-08-21T01:29:45;50475.00;;;-139.84;89.84
6528;BME280;3297;42.664;23.256;2022-08-21T01:32:15;50478.88;;;-139.84;90.30
6528;BME280;3297;42.664;23.256;2022-08-21T01:34:43;50515.81;;;-139.84;89.89
6528;BME280;3297;42.664;23.256;2022-08-21T01:37:10;50480.81;;;-139.84;89.68
6528;BME280;3297;42.664;23.256;2022-08-21T01:39:37;50455.56;;;-139.84;89.48
6528;BME280;3297;42.664;23.256;2022-08-21T01:42:04;50496.38;;;-139.84;89.44
6528;BME280;3297;42.664;23.256;2022-08-21T01:44:29;50523.59;;;-139.84;89.48
6528;BME280;3297;42.664;23.256;2022-08-21T01:46:58;50471.09;;;-139.84;89.66
6528;BME280;3297;42.664;23.256;2022-08-21T01:49:24;50478.88;;;-139.84;89.84
6528;BME280;3297;42.664;23.256;2022-08-21T01:51:49;50533.31;;;-139.84;89.98
6528;BME280;3297;42.664;23.256;2022-08-21T01:54:15;50465.28;;;-139.84;90.23
6528;BME280;3297;42.664;23.256;2022-08-21T01:56:43;50502.19;;;-139.84;89.93
6528;BME280;3297;42.664;23.256;2022-08-21T01:59:10;50529.41;;;-139.84;89.78
6528;BME280;3297;42.664;23.256;2022-08-21T02:01:37;50521.63;;;-139.84;90.42
6528;BME280;3297;42.664;23.256;2022-08-21T02:04:05;50478.88;;;-139.84;90.40
6528;BME280;3297;42.664;23.256;2022-08-21T02:06:31;50490.53;;;-139.84;89.96
6528;BME280;3297;42.664;23.256;2022-08-21T02:08:57;50511.91;;;-139.84;90.10
6528;BME280;3297;42.664;23.256;2022-08-21T02:11:23;50488.59;;;-139.84;90.36
6528;BME280;3297;42.664;23.256;2022-08-21T02:13:49;50509.97;;;-139.84;90.00
6528;BME280;3297;42.664;23.256;2022-08-21T02:16:15;50436.13;;;-139.84;90.06
6528;BME280;3297;42.664;23.256;2022-08-21T02:18:40;50486.66;;;-139.84;90.43
6528;BME280;3297;42.664;23.256;2022-08-21T02:21:06;50506.09;;;-139.84;91.08
6528;BME280;3297;42.664;23.256;2022-08-21T02:23:32;50486.66;;;-139.84;91.71
6528;BME280;3297;42.664;23.256;2022-08-21T02:25:59;50486.66;;;-139.84;91.28
6528;BME280;3297;42.664;23.256;2022-08-21T02:28:26;50513.88;;;-139.84;91.24
6528;BME280;3297;42.664;23.256;2022-08-21T02:30:52;50478.88;;;-139.84;91.83
6528;BME280;3297;42.664;23.256;2022-08-21T02:33:18;50478.88;;;-139.84;91.47
6528;BME280;3297;42.664;23.256;2022-08-21T02:35:46;50463.34;;;-139.84;91.44
6528;BME280;3297;42.664;23.256;2022-08-21T02:38:16;50471.09;;;-139.84;91.50
6528;BME280;3297;42.664;23.256;2022-08-21T02:40:44;50494.44;;;-139.84;91.57
6528;BME280;3297;42.664;23.256;2022-08-21T02:43:11;50511.91;;;-139.84;91.86
6528;BME280;3297;42.664;23.256;2022-08-21T02:45:39;50509.97;;;-139.84;91.90
6528;BME280;3297;42.664;23.256;2022-08-21T02:48:08;50490.53;;;-139.84;92.22
6528;BME280;3297;42.664;23.256;2022-08-21T02:50:39;50508.03;;;-139.84;92.01
6528;BME280;3297;42.664;23.256;2022-08-21T02:53:07;50513.88;;;-139.84;92.23
6528;BME280;3297;42.664;23.256;2022-08-21T02:55:34;50490.53;;;-139.84;91.96
6528;BME280;3297;42.664;23.256;2022-08-21T02:58:00;50525.53;;;-139.84;91.77
6528;BME280;3297;42.664;23.256;2022-08-21T03:00:29;50515.81;;;-139.84;92.23
6528;BME280;3297;42.664;23.256;2022-08-21T03:02:55;50476.94;;;-139.84;91.87
6528;BME280;3297;42.664;23.256;2022-08-21T03:05:22;50509.97;;;-139.84;91.76
6528;BME280;3297;42.664;23.256;2022-08-21T03:07:49;50492.47;;;-139.84;92.15
6528;BME280;3297;42.664;23.256;2022-08-21T03:10:15;50521.63;;;-139.84;92.12
6528;BME280;3297;42.664;23.256;2022-08-21T03:12:41;50521.63;;;-139.84;92.04
6528;BME280;3297;42.664;23.256;2022-08-21T03:15:10;50494.44;;;-139.84;92.08
6528;BME280;3297;42.664;23.256;2022-08-21T03:17:37;50506.09;;;-139.84;91.70
6528;BME280;3297;42.664;23.256;2022-08-21T03:20:04;50478.88;;;-139.84;91.60
6528;BME280;3297;42.664;23.256;2022-08-21T03:22:30;50459.44;;;-139.84;91.25
6528;BME280;3297;42.664;23.256;2022-08-21T03:24:57;50515.81;;;-139.84;91.30
6528;BME280;3297;42.664;23.256;2022-08-21T03:27:23;50494.44;;;-139.84;91.43
6528;BME280;3297;42.664;23.256;2022-08-21T03:29:50;50506.09;;;-139.84;91.28
6528;BME280;3297;42.664;23.256;2022-08-21T03:32:15;50488.59;;;-139.84;90.77
6528;BME280;3297;42.664;23.256;2022-08-21T03:34:41;50523.59;;;-139.84;90.54
6528;BME280;3297;42.664;23.256;2022-08-21T03:37:07;50478.88;;;-139.84;90.58
6528;BME280;3297;42.664;23.256;2022-08-21T03:39:34;50509.97;;;-139.84;90.42
6528;BME280;3297;42.664;23.256;2022-08-21T03:42:00;50502.19;;;-139.84;90.45
6528;BME280;3297;42.664;23.256;2022-08-21T03:44:27;50461.38;;;-139.84;90.37
6528;BME280;3297;42.664;23.256;2022-08-21T03:46:56;50541.06;;;-139.84;90.40
6528;BME280;3297;42.664;23.256;2022-08-21T03:49:23;50492.47;;;-139.84;90.77
6528;BME280;3297;42.664;23.256;2022-08-21T03:51:49;50471.09;;;-139.84;90.62
6528;BME280;3297;42.664;23.256;2022-08-21T03:54:15;50478.88;;;-139.84;90.72
6528;BME280;3297;42.664;23.256;2022-08-21T03:56:40;50482.78;;;-139.84;90.50
6528;BME280;3297;42.664;23.256;2022-08-21T03:59:06;50490.53;;;-139.84;90.48
6528;BME280;3297;42.664;23.256;2022-08-21T04:01:32;50537.19;;;-139.84;90.45
6528;BME280;3297;42.664;23.256;2022-08-21T04:03:58;50515.81;;;-139.84;90.29
6528;BME280;3297;42.664;23.256;2022-08-21T04:06:24;50476.94;;;-139.84;90.60
6528;BME280;3297;42.664;23.256;2022-08-21T04:08:51;50537.19;;;-139.84;90.70
6528;BME280;3297;42.664;23.256;2022-08-21T04:11:16;50537.19;;;-139.84;90.76
6528;BME280;3297;42.664;23.256;2022-08-21T04:13:42;50533.31;;;-139.84;90.76
6528;BME280;3297;42.664;23.256;2022-08-21T04:16:07;50471.09;;;-139.84;90.85
6528;BME280;3297;42.664;23.256;2022-08-21T04:18:33;50572.19;;;-139.84;91.21
6528;BME280;3297;42.664;23.256;2022-08-21T04:20:59;50537.19;;;-139.84;90.78
6528;BME280;3297;42.664;23.256;2022-08-21T04:23:26;50529.41;;;-139.84;91.03
6528;BME280;3297;42.664;23.256;2022-08-21T04:25:54;50508.03;;;-139.84;91.12
6528;BME280;3297;42.664;23.256;2022-08-21T04:28:25;50478.88;;;-139.84;91.15
6528;BME280;3297;42.664;23.256;2022-08-21T04:30:51;50500.25;;;-139.84;91.22
6528;BME280;3297;42.664;23.256;2022-08-21T04:33:17;50539.13;;;-139.84;91.56
6528;BME280;3297;42.664;23.256;2022-08-21T04:35:43;50521.63;;;-139.84;91.25
6528;BME280;3297;42.664;23.256;2022-08-21T04:38:09;50506.09;;;-139.84;91.56
6528;BME280;3297;42.664;23.256;2022-08-21T04:40:34;50521.63;;;-139.84;91.16
6528;BME280;3297;42.664;23.256;2022-08-21T04:43:05;50525.53;;;-139.84;91.11
6528;BME280;3297;42.664;23.256;2022-08-21T04:45:37;50521.63;;;-139.84;91.52
6528;BME280;3297;42.664;23.256;2022-08-21T04:48:05;50492.47;;;-139.84;91.41
6528;BME280;3297;42.664;23.256;2022-08-21T04:53:34;50513.88;;;-139.84;91.25
6528;BME280;3297;42.664;23.256;2022-08-21T04:56:32;50556.63;;;-139.84;91.30
6528;BME280;3297;42.664;23.256;2022-08-21T04:59:04;50525.53;;;-139.84;91.82
6528;BME280;3297;42.664;23.256;2022-08-21T05:01:34;50552.75;;;-139.84;91.31
6528;BME280;3297;42.664;23.256;2022-08-21T05:04:03;50548.84;;;-139.84;91.00
6528;BME280;3297;42.664;23.256;2022-08-21T05:06:31;50552.75;;;-139.84;90.81
6528;BME280;3297;42.664;23.256;2022-08-21T05:09:00;50525.53;;;-139.84;90.83
6528;BME280;3297;42.664;23.256;2022-08-21T05:11:27;50576.06;;;-139.84;91.27
6528;BME280;3297;42.664;23.256;2022-08-21T05:13:52;50570.22;;;-139.84;91.01
6528;BME280;3297;42.664;23.256;2022-08-21T05:16:18;50508.03;;;-139.84;90.45
6528;BME280;3297;42.664;23.256;2022-08-21T05:18:43;50506.09;;;-139.84;90.60
6528;BME280;3297;42.664;23.256;2022-08-21T05:21:09;50556.63;;;-139.84;90.34
6528;BME280;3297;42.664;23.256;2022-08-21T05:23:35;50556.63;;;-139.84;90.09
6528;BME280;3297;42.664;23.256;2022-08-21T05:26:01;50562.47;;;-139.84;89.59
6528;BME280;3297;42.664;23.256;2022-08-21T05:28:27;50603.28;;;-139.84;89.07
6528;BME280;3297;42.664;23.256;2022-08-21T05:30:53;50546.91;;;-139.84;89.03
6528;BME280;3297;42.664;23.256;2022-08-21T05:33:18;50564.41;;;-139.84;89.33
6528;BME280;3297;42.664;23.256;2022-08-21T05:35:44;50576.06;;;-139.84;89.09
6528;BME280;3297;42.664;23.256;2022-08-21T05:38:10;50566.34;;;-139.84;88.34
6528;BME280;3297;42.664;23.256;2022-08-21T05:40:35;50554.69;;;-139.84;87.65
6528;BME280;3297;42.664;23.256;2022-08-21T05:43:02;50574.13;;;-139.84;87.54
6528;BME280;3297;42.664;23.256;2022-08-21T05:45:31;50609.09;;;-139.84;86.90
6528;BME280;3297;42.664;23.256;2022-08-21T05:48:05;50558.56;;;-139.84;86.45
6528;BME280;3297;42.664;23.256;2022-08-21T05:50:32;50539.13;;;-139.84;85.42
6528;BME280;3297;42.664;23.256;2022-08-21T05:52:57;50527.47;;;-139.84;85.10
6528;BME280;3297;42.664;23.256;2022-08-21T05:55:23;50531.34;;;-139.84;84.91
6528;BME280;3297;42.664;23.256;2022-08-21T05:57:49;50564.41;;;-139.84;84.39
6528;BME280;3297;42.664;23.256;2022-08-21T06:00:15;50543.03;;;-139.84;84.30
6528;BME280;3297;42.664;23.256;2022-08-21T06:02:41;50558.56;;;-139.84;82.38
6528;BME280;3297;42.664;23.256;2022-08-21T06:05:07;50566.34;;;-139.84;82.43
6528;BME280;3297;42.664;23.256;2022-08-21T06:07:33;50568.28;;;-139.84;82.30
6528;BME280;3297;42.664;23.256;2022-08-21T06:09:58;50541.06;;;-139.84;83.52
6528;BME280;3297;42.664;23.256;2022-08-21T06:12:25;50576.06;;;-139.84;83.75
6528;BME280;3297;42.664;23.256;2022-08-21T06:14:51;50552.75;;;-139.84;83.21
6528;BME280;3297;42.664;23.256;2022-08-21T06:17:18;50556.63;;;-139.84;78.68
6528;BME280;3297;42.664;23.256;2022-08-21T06:19:43;50611.06;;;-139.84;77.36
6528;BME280;3297;42.664;23.256;2022-08-21T06:22:09;50560.50;;;-139.84;74.49
6528;BME280;3297;42.664;23.256;2022-08-21T06:24:35;50620.78;;;-139.84;69.71
6528;BME280;3297;42.664;23.256;2022-08-21T06:27:07;50595.50;;;-139.84;68.49
6528;BME280;3297;42.664;23.256;2022-08-21T06:29:34;50597.44;;;-139.84;67.71
6528;BME280;3297;42.664;23.256;2022-08-21T06:32:00;50638.25;;;-139.84;67.32
6528;BME280;3297;42.664;23.256;2022-08-21T06:34:26;50636.31;;;-139.84;65.18
6528;BME280;3297;42.664;23.256;2022-08-21T06:36:52;50605.22;;;-139.84;64.69
6528;BME280;3297;42.664;23.256;2022-08-21T06:39:18;50611.06;;;-139.84;63.50
6528;BME280;3297;42.664;23.256;2022-08-21T06:41:43;50649.94;;;-139.84;61.47
6528;BME280;3297;42.664;23.256;2022-08-21T06:44:09;50626.59;;;-139.84;60.03
6528;BME280;3297;42.664;23.256;2022-08-21T06:46:34;50646.03;;;-139.84;59.17
6528;BME280;3297;42.664;23.256;2022-08-21T06:49:00;50609.09;;;-139.84;58.62
6528;BME280;3297;42.664;23.256;2022-08-21T06:51:27;50657.69;;;-139.84;57.50
6528;BME280;3297;42.664;23.256;2022-08-21T06:53:54;50681.03;;;-139.84;56.43
6528;BME280;3297;42.664;23.256;2022-08-21T06:56:20;50632.44;;;-139.84;54.68
6528;BME280;3297;42.664;23.256;2022-08-21T06:58:45;50581.91;;;-139.84;54.83
6528;BME280;3297;42.664;23.256;2022-08-21T07:01:11;50622.72;;;-139.84;56.16
6528;BME280;3297;42.664;23.256;2022-08-21T07:03:39;50614.94;;;-139.84;55.38
6528;BME280;3297;42.664;23.256;2022-08-21T07:06:06;50626.59;;;-139.84;55.81
6528;BME280;3297;42.664;23.256;2022-08-21T07:08:33;50599.38;;;-139.84;56.60
6528;BME280;3297;42.664;23.256;2022-08-21T07:11:02;50583.84;;;-139.84;58.67
6528;BME280;3297;42.664;23.256;2022-08-21T07:13:28;50634.38;;;-139.84;59.61
6528;BME280;3297;42.664;23.256;2022-08-21T07:15:53;50611.06;;;-139.84;60.19
6528;BME280;3297;42.664;23.256;2022-08-21T07:18:19;50589.66;;;-139.84;60.71
6528;BME280;3297;42.664;23.256;2022-08-21T07:20:45;50589.66;;;-139.84;60.49
6528;BME280;3297;42.664;23.256;2022-08-21T07:23:22;50595.50;;;-139.84;60.12
6528;BME280;3297;42.664;23.256;2022-08-21T07:25:49;50634.38;;;-139.84;60.88
6528;BME280;3297;42.664;23.256;2022-08-21T07:28:14;50618.81;;;-139.84;60.99
6528;BME280;3297;42.664;23.256;2022-08-21T07:30:40;50607.16;;;-139.84;61.13
6528;BME280;3297;42.664;23.256;2022-08-21T07:33:05;50614.94;;;-139.84;61.44
6528;BME280;3297;42.664;23.256;2022-08-21T07:35:31;50583.84;;;-139.84;60.47
6528;BME280;3297;42.664;23.256;2022-08-21T07:37:58;50647.97;;;-139.84;59.68
6528;BME280;3297;42.664;23.256;2022-08-21T07:40:24;50613.00;;;-139.84;59.46
6528;BME280;3297;42.664;23.256;2022-08-21T07:42:50;50607.16;;;-139.84;59.67
6528;BME280;3297;42.664;23.256;2022-08-21T07:45:18;50603.28;;;-139.84;59.97
6528;BME280;3297;42.664;23.256;2022-08-21T07:47:44;50646.03;;;-139.84;59.67
6528;BME280;3297;42.664;23.256;2022-08-21T07:50:11;50603.28;;;-139.84;59.05
6528;BME280;3297;42.664;23.256;2022-08-21T07:52:37;50591.63;;;-139.84;60.29
6528;BME280;3297;42.664;23.256;2022-08-21T07:55:03;50614.94;;;-139.84;59.74
6528;BME280;3297;42.664;23.256;2022-08-21T07:57:29;50603.28;;;-139.84;60.71
6528;BME280;3297;42.664;23.256;2022-08-21T07:59:54;50595.50;;;-139.84;59.31
6528;BME280;3297;42.664;23.256;2022-08-21T08:02:27;50583.84;;;-139.84;59.93
6528;BME280;3297;42.664;23.256;2022-08-21T08:04:53;50579.94;;;-139.84;61.38
6528;BME280;3297;42.664;23.256;2022-08-21T08:07:19;50595.50;;;-139.84;60.63
6528;BME280;3297;42.664;23.256;2022-08-21T08:09:45;50578.00;;;-139.84;60.07
6528;BME280;3297;42.664;23.256;2022-08-21T08:12:11;50669.38;;;-139.84;59.47
6528;BME280;3297;42.664;23.256;2022-08-21T08:14:37;50659.66;;;-139.84;58.54
6528;BME280;3297;42.664;23.256;2022-08-21T08:17:03;50628.53;;;-139.84;57.47
6528;BME280;3297;42.664;23.256;2022-08-21T08:19:29;50642.16;;;-139.84;55.97
6528;BME280;3297;42.664;23.256;2022-08-21T08:21:55;50638.25;;;-139.84;55.18
6528;BME280;3297;42.664;23.256;2022-08-21T08:24:21;50634.38;;;-139.84;54.90
6528;BME280;3297;42.664;23.256;2022-08-21T08:26:46;50599.38;;;-139.84;52.76
6528;BME280;3297;42.664;23.256;2022-08-21T08:29:12;50630.50;;;-139.84;50.74
6528;BME280;3297;42.664;23.256;2022-08-21T08:31:38;50628.53;;;-139.84;51.35
6528;BME280;3297;42.664;23.256;2022-08-21T08:34:04;50657.69;;;-139.84;50.72
6528;BME280;3297;42.664;23.256;2022-08-21T08:36:37;50636.31;;;-139.84;50.88
6528;BME280;3297;42.664;23.256;2022-08-21T08:39:04;50620.78;;;-139.84;51.53
6528;BME280;3297;42.664;23.256;2022-08-21T08:41:30;50624.66;;;-139.84;51.48
6528;BME280;3297;42.664;23.256;2022-08-21T08:44:03;50630.50;;;-139.84;50.83
6528;BME280;3297;42.664;23.256;2022-08-21T08:46:33;50613.00;;;-139.84;50.13
6528;BME280;3297;42.664;23.256;2022-08-21T08:49:13;50620.78;;;-139.84;50.47
6528;BME280;3297;42.664;23.256;2022-08-21T08:54:12;50618.81;;;-139.84;51.75
6528;BME280;3297;42.664;23.256;2022-08-21T08:56:39;50614.94;;;-139.84;50.81
6528;BME280;3297;42.664;23.256;2022-08-21T08:59:15;50665.47;;;-139.84;50.28
6528;BME280;3297;42.664;23.256;2022-08-21T09:01:41;50653.81;;;-139.84;49.46
6528;BME280;3297;42.664;23.256;2022-08-21T09:04:09;50647.97;;;-139.84;48.23
6528;BME280;3297;42.664;23.256;2022-08-21T09:06:50;50616.88;;;-139.84;48.30
6528;BME280;3297;42.664;23.256;2022-08-21T09:09:29;50620.78;;;-139.84;48.47
6528;BME280;3297;42.664;23.256;2022-08-21T09:12:06;50640.22;;;-139.84;48.09
6528;BME280;3297;42.664;23.256;2022-08-21T09:25:49;50611.06;;;-139.84;49.06
6528;BME280;3297;42.664;23.256;2022-08-21T09:28:19;50603.28;;;-139.84;48.70
6528;BME280;3297;42.664;23.256;2022-08-21T09:30:45;50622.72;;;-139.84;47.73
6528;BME280;3297;42.664;23.256;2022-08-21T09:33:12;50614.94;;;-139.84;48.61
6528;BME280;3297;42.664;23.256;2022-08-21T09:35:49;50646.03;;;-139.84;48.49
6528;BME280;3297;42.664;23.256;2022-08-21T09:38:28;50605.22;;;-139.84;48.04
6528;BME280;3297;42.664;23.256;2022-08-21T09:41:04;50622.72;;;-139.84;48.58
6528;BME280;3297;42.664;23.256;2022-08-21T09:43:31;50630.50;;;-139.84;47.74
6528;BME280;3297;42.664;23.256;2022-08-21T09:46:09;50638.25;;;-139.84;48.15
6528;BME280;3297;42.664;23.256;2022-08-21T09:48:50;50622.72;;;-139.84;49.29
6528;BME280;3297;42.664;23.256;2022-08-21T09:51:20;50628.53;;;-139.84;48.19
6528;BME280;3297;42.664;23.256;2022-08-21T09:53:56;50647.97;;;-139.84;49.24
6528;BME280;3297;42.664;23.256;2022-08-21T09:56:31;50609.09;;;-139.84;50.12
6528;BME280;3297;42.664;23.256;2022-08-21T09:59:27;50655.75;;;-139.84;51.17
6528;BME280;3297;42.664;23.256;2022-08-21T10:01:56;50642.16;;;-139.84;50.88
6528;BME280;3297;42.664;23.256;2022-08-21T10:04:33;50618.81;;;-139.84;49.64
6528;BME280;3297;42.664;23.256;2022-08-21T10:07:12;50607.16;;;-139.84;50.14
6528;BME280;3297;42.664;23.256;2022-08-21T10:09:38;50630.50;;;-139.84;49.50
6528;BME280;3297;42.664;23.256;2022-08-21T10:12:15;50607.16;;;-139.84;48.67
6528;BME280;3297;42.664;23.256;2022-08-21T10:15:38;50614.94;;;-139.84;48.17
6528;BME280;3297;42.664;23.256;2022-08-21T10:18:02;50589.66;;;-139.84;47.81
6528;BME280;3297;42.664;23.256;2022-08-21T10:26:00;50638.25;;;-139.84;45.97
6528;BME280;3297;42.664;23.256;2022-08-21T10:33:42;50613.00;;;-139.84;46.10
6528;BME280;3297;42.664;23.256;2022-08-21T10:36:21;50611.06;;;-139.84;47.09
6528;BME280;3297;42.664;23.256;2022-08-21T10:48:59;50607.16;;;-139.84;46.61
6528;BME280;3297;42.664;23.256;2022-08-21T10:51:35;50603.28;;;-139.84;45.52
6528;BME280;3297;42.664;23.256;2022-08-21T10:56:36;50636.31;;;-139.84;44.74
6528;BME280;3297;42.664;23.256;2022-08-21T10:59:25;50614.94;;;-139.84;44.85
6528;BME280;3297;42.664;23.256;2022-08-21T11:02:04;50613.00;;;-139.84;45.07
6528;BME280;3297;42.664;23.256;2022-08-21T11:10:21;50614.94;;;-139.84;46.51
6528;BME280;3297;42.664;23.256;2022-08-21T11:12:52;50653.81;;;-139.84;44.70
6528;BME280;3297;42.664;23.256;2022-08-21T11:18:53;50630.50;;;-139.84;44.53
6528;BME280;3297;42.664;23.256;2022-08-21T11:21:10;50626.59;;;-139.84;43.59
6528;BME280;3297;42.664;23.256;2022-08-21T11:26:22;50607.16;;;-139.84;43.87
6528;BME280;3297;42.664;23.256;2022-08-21T11:29:23;50649.94;;;-139.84;44.49
6528;BME280;3297;42.664;23.256;2022-08-21T11:32:02;50626.59;;;-139.84;43.62
6528;BME280;3297;42.664;23.256;2022-08-21T11:37:04;50628.53;;;-139.84;43.11
6528;BME280;3297;42.664;23.256;2022-08-21T11:40:54;50638.25;;;-139.84;42.61
6528;BME280;3297;42.664;23.256;2022-08-21T11:43:02;50626.59;;;-139.84;43.40
6528;BME280;3297;42.664;23.256;2022-08-21T11:45:45;50603.28;;;-139.84;43.52
6528;BME280;3297;42.664;23.256;2022-08-21T11:50:44;50611.06;;;-139.84;44.30
6528;BME280;3297;42.664;23.256;2022-08-21T11:53:37;50611.06;;;-139.84;44.00
6528;BME280;3297;42.664;23.256;2022-08-21T11:56:26;50618.81;;;-139.84;45.05
6528;BME280;3297;42.664;23.256;2022-08-21T11:58:59;50616.88;;;-139.84;45.07
6528;BME280;3297;42.664;23.256;2022-08-21T12:01:37;50591.63;;;-139.84;44.62
6528;BME280;3297;42.664;23.256;2022-08-21T12:04:16;50609.09;;;-139.84;45.04
6528;BME280;3297;42.664;23.256;2022-08-21T12:06:43;50576.06;;;-139.84;44.95
6528;BME280;3297;42.664;23.256;2022-08-21T12:09:33;50562.47;;;-139.84;45.83
6528;BME280;3297;42.664;23.256;2022-08-21T12:12:24;50607.16;;;-139.84;45.04
6528;BME280;3297;42.664;23.256;2022-08-21T12:18:00;50634.38;;;-139.84;46.45
6528;BME280;3297;42.664;23.256;2022-08-21T12:23:16;50564.41;;;-139.84;47.65
6528;BME280;3297;42.664;23.256;2022-08-21T12:28:28;50578.00;;;-139.84;48.93
6528;BME280;3297;42.664;23.256;2022-08-21T12:30:55;50591.63;;;-139.84;48.51
6528;BME280;3297;42.664;23.256;2022-08-21T12:33:34;50609.09;;;-139.84;48.25
6528;BME280;3297;42.664;23.256;2022-08-21T12:36:17;50576.06;;;-139.84;48.60
6528;BME280;3297;42.664;23.256;2022-08-21T12:38:56;50605.22;;;-139.84;48.44
6528;BME280;3297;42.664;23.256;2022-08-21T12:41:41;50622.72;;;-139.84;49.19
6528;BME280;3297;42.664;23.256;2022-08-21T12:44:14;50587.72;;;-139.84;49.23
6528;BME280;3297;42.664;23.256;2022-08-21T12:46:48;50570.22;;;-139.84;49.50
6528;BME280;3297;42.664;23.256;2022-08-21T12:49:19;50579.94;;;-139.84;49.08
6528;BME280;3297;42.664;23.256;2022-08-21T12:51:55;50581.91;;;-139.84;49.45
6528;BME280;3297;42.664;23.256;2022-08-21T12:54:29;50613.00;;;-139.84;49.33
6528;BME280;3297;42.664;23.256;2022-08-21T12:57:01;50599.38;;;-139.84;49.70
6528;BME280;3297;42.664;23.256;2022-08-21T12:59:28;50578.00;;;-139.84;50.45
6528;BME280;3297;42.664;23.256;2022-08-21T13:01:55;50570.22;;;-139.84;50.50
6528;BME280;3297;42.664;23.256;2022-08-21T13:04:35;50578.00;;;-139.84;50.62
6528;BME280;3297;42.664;23.256;2022-08-21T13:07:06;50564.41;;;-139.84;50.74
6528;BME280;3297;42.664;23.256;2022-08-21T13:09:32;50605.22;;;-139.84;51.42
6528;BME280;3297;42.664;23.256;2022-08-21T13:11:59;50591.63;;;-139.84;51.89
6528;BME280;3297;42.664;23.256;2022-08-21T13:17:00;50579.94;;;-139.84;51.90
6528;BME280;3297;42.664;23.256;2022-08-21T13:19:28;50611.06;;;-139.84;51.87
6528;BME280;3297;42.664;23.256;2022-08-21T13:21:55;50583.84;;;-139.84;51.57
6528;BME280;3297;42.664;23.256;2022-08-21T13:24:27;50607.16;;;-139.84;52.05
6528;BME280;3297;42.664;23.256;2022-08-21T13:26:53;50579.94;;;-139.84;52.28
6528;BME280;3297;42.664;23.256;2022-08-21T13:29:23;50587.72;;;-139.84;51.27
6528;BME280;3297;42.664;23.256;2022-08-21T13:32:00;50574.13;;;-139.84;51.76
6528;BME280;3297;42.664;23.256;2022-08-21T13:34:31;50618.81;;;-139.84;50.33
6528;BME280;3297;42.664;23.256;2022-08-21T13:37:00;50572.19;;;-139.84;49.64
6528;BME280;3297;42.664;23.256;2022-08-21T13:39:27;50609.09;;;-139.84;49.92
6528;BME280;3297;42.664;23.256;2022-08-21T13:41:56;50579.94;;;-139.84;49.02
6528;BME280;3297;42.664;23.256;2022-08-21T13:44:42;50564.41;;;-139.84;49.10
6528;BME280;3297;42.664;23.256;2022-08-21T13:47:11;50578.00;;;-139.84;48.59
6528;BME280;3297;42.664;23.256;2022-08-21T13:49:41;50583.84;;;-139.84;49.21
6528;BME280;3297;42.664;23.256;2022-08-21T13:52:22;50618.81;;;-139.84;48.81
6528;BME280;3297;42.664;23.256;2022-08-21T13:55:09;50579.94;;;-139.84;49.24
6528;BME280;3297;42.664;23.256;2022-08-21T13:57:37;50583.84;;;-139.84;48.59
6528;BME280;3297;42.664;23.256;2022-08-21T14:00:17;50576.06;;;-139.84;48.02
6528;BME280;3297;42.664;23.256;2022-08-21T14:02:45;50566.34;;;-139.84;49.32
6528;BME280;3297;42.664;23.256;2022-08-21T14:05:32;50614.94;;;-139.84;50.86
6528;BME280;3297;42.664;23.256;2022-08-21T14:08:20;50611.06;;;-139.84;51.16
6528;BME280;3297;42.664;23.256;2022-08-21T14:10:50;50589.66;;;-139.84;51.33
6528;BME280;3297;42.664;23.256;2022-08-21T14:13:58;50583.84;;;-139.84;51.46